Central, Arizona
Current Conditions -  °F | °C
As of 1:51 PM on Monday 20 Oct 2014 (Local Time) from KSAD Reporting Station
Few Clouds Few Clouds  
Wind Chill: 77°   Ceiling: Unl
Heat Index: 78°   Visibility: 10mi
Dew Point: 51°   Wind: 12mph
Humidity: 40%   Direction: 130°SE
Pressure: 29.96"   Gusts: NA
Location:  32.87°N, 109.79°W
Report Text: KSAD 202051Z AUTO 13010KT 10SM FEW060 25/11 A2996 RMK AO2 LTG DSNT NE SLP109 T02500106 56025
Loading
Personal Weather Stations






























Interactive Weather Map
Tropical Storm Tracking
New forecast layout! Learn more

10-Day Weather Forecast

Advertisements
Track Severe Weather on mobile